Time;durP1;ratioP1;P1;durP2;ratioP2;P2;SDS_P1;SDS_P2;PMS_P1;PMS_P2;Temp;Humidity;BMP_temperature;BMP_pressure;BME280_temperature;BME280_humidity;BME280_pressure;Samples;Min_cycle;Max_cycle;Signal;HPM_P1;HPM_P2
2022/10/18 00:02:13;;;;;;;11.73;6.43;;;;;;;9.49;83.90;100162.44;5085749;28;20032;-66
2022/10/18 00:04:38;;;;;;;11.27;7.13;;;;;;;9.46;83.22;100152.13;5101502;28;20046;-66
2022/10/18 00:07:04;;;;;;;11.35;6.18;;;;;;;9.48;83.24;100152.13;5092322;28;20024;-66
2022/10/18 00:09:30;;;;;;;12.23;7.35;;;;;;;9.51;82.82;100146.91;5091839;28;20422;-66
2022/10/18 00:11:55;;;;;;;8.65;6.25;;;;;;;9.52;83.01;100137.41;5104694;28;20024;-66
2022/10/18 00:14:21;;;;;;;8.98;6.35;;;;;;;9.48;83.18;100132.28;5084849;28;20221;-69
2022/10/18 00:16:47;;;;;;;9.93;6.38;;;;;;;9.47;83.04;100125.38;5102228;28;20310;-66
2022/10/18 00:19:12;;;;;;;10.75;5.93;;;;;;;9.53;83.46;100126.22;5099391;28;20028;-67
2022/10/18 00:21:38;;;;;;;9.43;6.53;;;;;;;9.54;83.50;100118.44;5099609;28;20090;-66
2022/10/18 00:24:04;;;;;;;8.68;6.18;;;;;;;9.54;83.23;100125.34;5088995;28;20040;-68
2022/10/18 00:26:31;;;;;;;10.60;6.07;;;;;;;9.52;83.48;100143.47;5084264;28;20272;-66
2022/10/18 00:28:59;;;;;;;9.32;5.60;;;;;;;9.50;83.44;100093.47;5103373;28;20028;-67
2022/10/18 00:31:27;;;;;;;10.70;6.28;;;;;;;9.59;82.43;100101.16;5092201;28;20029;-67
2022/10/18 00:33:59;;;;;;;9.95;6.47;;;;;;;9.62;82.64;100097.66;5097879;28;20223;-67
2022/10/18 00:36:26;;;;;;;8.70;6.28;;;;;;;9.55;82.61;100083.97;5105527;28;20052;-66
2022/10/18 00:38:52;;;;;;;9.35;6.25;;;;;;;9.66;82.52;100104.50;5104043;28;20031;-67
2022/10/18 00:41:21;;;;;;;8.77;5.97;;;;;;;9.66;83.10;100095.03;5085020;28;20047;-67
2022/10/18 00:43:56;;;;;;;9.43;6.35;;;;;;;9.68;82.33;100095.03;5101524;28;20027;-66
2022/10/18 00:46:23;;;;;;;7.78;5.60;;;;;;;9.66;82.23;100089.88;5092171;28;20051;-67
2022/10/18 00:48:50;;;;;;;8.35;5.80;;;;;;;9.69;82.73;100083.81;5085151;28;20028;-67
2022/10/18 00:51:20;;;;;;;8.00;6.50;;;;;;;9.66;81.82;100084.69;5088458;28;20040;-67
2022/10/18 00:53:45;;;;;;;9.63;6.35;;;;;;;9.67;82.05;100080.38;5105553;28;20027;-67
2022/10/18 00:56:12;;;;;;;9.82;6.18;;;;;;;9.65;81.87;100082.97;5104931;28;20093;-67
2022/10/18 00:58:38;;;;;;;7.40;6.05;;;;;;;9.64;81.78;100078.66;5088817;28;20271;-67
2022/10/18 01:01:04;;;;;;;11.75;6.25;;;;;;;9.63;82.05;100076.09;5094670;28;20039;-66
2022/10/18 01:03:30;;;;;;;9.10;6.57;;;;;;;9.54;82.29;100069.31;5105075;28;20054;-66
2022/10/18 01:05:56;;;;;;;12.00;6.00;;;;;;;9.58;81.62;100062.38;5101563;28;20027;-67
2022/10/18 01:08:55;;;;;;;8.30;6.10;;;;;;;9.60;82.31;100064.06;5104839;28;20024;-65
2022/10/18 01:12:13;;;;;;;9.75;5.93;;;;;;;9.61;81.37;100064.94;5077869;28;20036;-66
2022/10/18 01:15:00;;;;;;;8.13;6.35;;;;;;;9.55;82.11;100068.44;5046456;28;20052;-66
2022/10/18 01:17:33;;;;;;;9.10;5.90;;;;;;;9.44;82.49;100063.38;5084548;28;20043;-66
2022/10/18 01:20:20;;;;;;;10.70;5.63;;;;;;;9.43;81.81;100077.16;5101744;28;20028;-66
2022/10/18 01:22:51;;;;;;;9.98;6.20;;;;;;;9.38;82.86;100081.56;5094291;28;20028;-66
2022/10/18 01:25:23;;;;;;;10.35;6.47;;;;;;;9.36;83.17;100080.69;5092157;28;20056;-65
2022/10/18 01:27:51;;;;;;;10.13;6.43;;;;;;;9.34;82.92;100074.69;5093965;28;20032;-66
2022/10/18 01:30:32;;;;;;;7.70;5.55;;;;;;;9.37;82.23;100069.50;5104463;28;20058;-66
2022/10/18 01:33:22;;;;;;;7.38;5.60;;;;;;;9.21;82.50;100040.38;5104282;28;20034;-65
2022/10/18 01:35:54;;;;;;;9.20;6.03;;;;;;;9.33;82.52;100078.13;5057133;28;20045;-66
2022/10/18 01:38:22;;;;;;;8.43;6.00;;;;;;;9.16;82.65;100055.03;5091119;28;20327;-66
2022/10/18 01:40:50;;;;;;;12.07;6.32;;;;;;;9.22;82.29;100062.75;5099460;28;20024;-65
2022/10/18 01:43:17;;;;;;;8.90;6.30;;;;;;;9.19;82.61;100059.34;5091383;28;20212;-65
2022/10/18 01:45:43;;;;;;;10.52;6.32;;;;;;;9.27;82.54;100055.78;5090713;28;20028;-66
2022/10/18 01:48:11;;;;;;;11.52;5.88;;;;;;;9.17;83.26;100043.84;5102006;28;20043;-66
2022/10/18 01:50:37;;;;;;;11.07;6.40;;;;;;;9.25;82.73;100048.94;5084132;28;20043;-66
2022/10/18 01:53:02;;;;;;;8.80;5.78;;;;;;;9.30;83.24;100042.00;5101501;28;20087;-66
2022/10/18 01:55:56;;;;;;;9.45;6.03;;;;;;;9.29;82.31;100035.09;5090979;28;20032;-67
2022/10/18 01:58:34;;;;;;;9.93;6.50;;;;;;;9.28;81.87;100023.06;5087453;28;20048;-67
2022/10/18 02:01:12;;;;;;;11.50;6.18;;;;;;;9.37;81.87;100029.88;5094519;28;20024;-65
2022/10/18 02:03:45;;;;;;;8.98;5.90;;;;;;;9.40;82.41;100035.84;5112374;28;20028;-67
2022/10/18 02:06:20;;;;;;;8.90;5.90;;;;;;;9.36;82.09;100012.63;5099667;28;20111;-66
2022/10/18 02:08:56;;;;;;;7.57;5.72;;;;;;;9.53;82.34;100020.22;5097490;28;20066;-66
2022/10/18 02:11:22;;;;;;;12.15;6.18;;;;;;;9.52;81.42;100028.81;5091293;28;20028;-65
2022/10/18 02:13:56;;;;;;;9.50;6.32;;;;;;;9.44;81.32;100011.69;5100612;28;20370;-65
2022/10/18 02:16:27;;;;;;;9.45;6.13;;;;;;;9.52;81.55;100023.66;5091655;28;20030;-66
2022/10/18 02:19:40;;;;;;;8.95;6.22;;;;;;;9.52;81.67;100019.38;5090920;28;20197;-66
2022/10/18 02:22:09;;;;;;;10.40;6.40;;;;;;;9.38;81.42;100016.94;5029787;28;20390;-66
2022/10/18 02:24:44;;;;;;;10.43;5.93;;;;;;;9.43;81.75;100024.63;5034893;28;20048;-65
2022/10/18 02:27:11;;;;;;;10.20;6.57;;;;;;;9.43;82.10;100019.44;5041287;28;20041;-65
2022/10/18 02:29:38;;;;;;;9.30;5.90;;;;;;;9.53;81.04;100020.22;5041837;28;20053;-66
2022/10/18 02:32:28;;;;;;;11.88;5.78;;;;;;;9.57;81.33;100011.53;5024565;28;20030;-66
2022/10/18 02:35:05;;;;;;;10.27;6.10;;;;;;;9.48;81.55;100005.59;5042605;28;20042;-66
2022/10/18 02:37:38;;;;;;;9.57;6.03;;;;;;;9.52;81.58;100009.03;5044486;28;20060;-66
2022/10/18 02:40:07;;;;;;;12.63;6.65;;;;;;;9.40;81.06;99973.81;5032110;28;20128;-66
2022/10/18 02:42:39;;;;;;;10.57;6.50;;;;;;;9.51;80.85;99996.97;5026493;28;20293;-66
2022/10/18 02:45:05;;;;;;;10.85;6.45;;;;;;;9.52;81.25;99990.94;5040129;28;20060;-65
2022/10/18 02:47:31;;;;;;;9.70;5.90;;;;;;;9.55;81.49;99980.53;5021451;28;20030;-66
2022/10/18 02:49:57;;;;;;;10.57;5.85;;;;;;;9.53;80.75;99987.44;5021366;28;20030;-66
2022/10/18 02:52:22;;;;;;;11.43;6.82;;;;;;;9.56;81.69;99989.13;5048159;28;20082;-65
2022/10/18 02:54:48;;;;;;;9.65;6.07;;;;;;;9.55;80.87;99977.06;5089934;28;20060;-65
2022/10/18 02:57:13;;;;;;;8.40;5.75;;;;;;;9.61;80.81;99967.53;5103015;28;20322;-66
2022/10/18 02:59:39;;;;;;;9.50;6.28;;;;;;;9.52;81.63;99957.31;5103623;28;20054;-65
2022/10/18 03:02:04;;;;;;;12.98;7.07;;;;;;;9.44;80.91;99959.97;5088299;28;20043;-65
2022/10/18 03:04:30;;;;;;;10.27;6.20;;;;;;;9.48;81.96;99950.47;5087295;28;20052;-66
2022/10/18 03:06:56;;;;;;;11.95;6.25;;;;;;;9.51;81.42;99950.41;5090196;28;20028;-66
2022/10/18 03:09:21;;;;;;;9.98;6.03;;;;;;;9.46;81.68;99942.72;5090855;28;20070;-66
2022/10/18 03:11:47;;;;;;;10.13;6.57;;;;;;;9.53;81.51;99947.81;5093747;28;20252;-66
2022/10/18 03:14:12;;;;;;;9.35;6.22;;;;;;;9.47;80.71;99947.00;5091088;28;20031;-65
2022/10/18 03:16:38;;;;;;;11.60;6.20;;;;;;;9.46;81.85;99939.28;5089628;28;20099;-66
2022/10/18 03:19:03;;;;;;;9.98;6.70;;;;;;;9.43;81.25;99939.31;5090066;28;20074;-66
2022/10/18 03:21:29;;;;;;;7.50;5.70;;;;;;;9.44;81.05;99931.53;5092387;28;20036;-65
2022/10/18 03:23:55;;;;;;;11.43;6.53;;;;;;;9.46;80.75;99929.81;5092222;28;20344;-65
2022/10/18 03:26:20;;;;;;;9.55;6.70;;;;;;;9.48;80.53;99930.63;5092521;28;20028;-65
2022/10/18 03:28:46;;;;;;;9.80;7.00;;;;;;;9.41;81.15;99922.97;5092336;28;20087;-65
2022/10/18 03:31:12;;;;;;;10.52;6.70;;;;;;;9.42;81.56;99914.34;5093231;28;20047;-65
2022/10/18 03:33:37;;;;;;;11.40;6.65;;;;;;;9.49;81.08;99916.84;5093571;28;20043;-65
2022/10/18 03:36:03;;;;;;;11.82;6.95;;;;;;;9.44;80.99;99913.44;5094472;28;20225;-65
2022/10/18 03:38:29;;;;;;;10.10;6.57;;;;;;;9.38;81.18;99900.59;5100759;28;20038;-65
2022/10/18 03:40:55;;;;;;;9.70;5.85;;;;;;;9.43;81.96;99900.53;5092254;28;20031;-66
2022/10/18 03:43:21;;;;;;;10.32;6.68;;;;;;;9.31;81.60;99888.66;5090650;28;20035;-66
2022/10/18 03:45:47;;;;;;;8.88;6.95;;;;;;;9.31;81.19;99891.22;5092806;28;20043;-66
2022/10/18 03:48:12;;;;;;;10.40;6.53;;;;;;;9.32;81.50;99901.53;5090346;28;20016;-64
2022/10/18 03:50:38;;;;;;;12.63;7.25;;;;;;;9.19;81.81;99886.19;5093987;28;20227;-65
2022/10/18 03:53:04;;;;;;;13.57;7.20;;;;;;;9.29;81.43;99882.63;5096063;28;20031;-65
2022/10/18 03:55:29;;;;;;;8.32;6.43;;;;;;;9.29;82.34;99875.75;5096762;28;20028;-65
2022/10/18 03:57:55;;;;;;;12.90;6.80;;;;;;;9.17;81.64;99868.13;5096602;28;20083;-66
2022/10/18 04:00:21;;;;;;;11.30;6.60;;;;;;;9.25;81.71;99865.44;5093779;28;20555;-66
2022/10/18 04:02:48;;;;;;;11.23;7.03;;;;;;;9.21;82.19;99864.66;5096326;28;20313;-67
2022/10/18 04:05:14;;;;;;;10.02;6.43;;;;;;;9.20;82.16;99844.00;5095024;28;20312;-66
2022/10/18 04:07:39;;;;;;;10.57;6.80;;;;;;;9.27;82.12;99843.03;5096461;28;20036;-67
2022/10/18 04:10:06;;;;;;;12.48;7.00;;;;;;;9.22;82.89;99849.97;5096884;28;20024;-67
2022/10/18 04:12:31;;;;;;;12.05;7.05;;;;;;;9.22;82.33;99843.09;5093816;28;20025;-67
2022/10/18 04:14:57;;;;;;;13.90;7.10;;;;;;;9.23;82.14;99843.94;5085657;28;20017;-66
2022/10/18 04:17:22;;;;;;;10.45;6.72;;;;;;;9.17;82.74;99834.56;5105117;28;20028;-67
2022/10/18 04:19:48;;;;;;;10.60;6.85;;;;;;;9.21;83.13;99825.03;5098432;28;20217;-66
2022/10/18 04:22:14;;;;;;;9.93;6.30;;;;;;;9.12;82.05;99818.25;5098081;28;20095;-66
2022/10/18 04:24:39;;;;;;;11.27;6.70;;;;;;;9.23;81.77;99833.63;5090147;28;20316;-66
2022/10/18 04:27:06;;;;;;;10.50;6.82;;;;;;;9.16;82.41;99835.41;5105687;28;20035;-66
2022/10/18 04:29:31;;;;;;;10.73;7.15;;;;;;;9.21;82.25;99830.22;5085357;28;20043;-66
2022/10/18 04:31:57;;;;;;;10.90;6.70;;;;;;;9.15;82.24;99831.16;5100939;28;20304;-66
2022/10/18 04:34:23;;;;;;;9.50;7.03;;;;;;;9.14;82.54;99825.09;5092128;28;20209;-66
2022/10/18 04:36:48;;;;;;;12.38;7.05;;;;;;;9.06;83.24;99820.91;5099486;28;20103;-66
2022/10/18 04:39:14;;;;;;;12.20;6.85;;;;;;;9.17;82.40;99815.63;5086695;28;20021;-66
2022/10/18 04:41:40;;;;;;;14.15;6.93;;;;;;;9.13;82.74;99814.78;5089346;28;20181;-66
2022/10/18 04:44:06;;;;;;;10.55;7.38;;;;;;;9.21;81.84;99820.72;5100117;28;20035;-66
2022/10/18 04:46:32;;;;;;;12.20;7.00;;;;;;;9.18;82.69;99800.09;5091967;28;20028;-66
2022/10/18 04:49:00;;;;;;;10.90;6.38;;;;;;;9.24;82.61;99801.75;5092610;28;20020;-66
2022/10/18 04:51:28;;;;;;;9.90;6.55;;;;;;;9.27;82.63;99799.94;5096122;28;20072;-66
2022/10/18 04:53:55;;;;;;;10.68;6.57;;;;;;;9.37;82.06;99805.84;5100760;28;20031;-65
2022/10/18 04:56:20;;;;;;;14.98;7.30;;;;;;;9.31;81.37;99805.94;5095466;28;20025;-65
2022/10/18 04:58:46;;;;;;;11.15;6.80;;;;;;;9.38;82.41;99804.09;5094252;28;20343;-67
2022/10/18 05:01:12;;;;;;;11.18;6.50;;;;;;;9.30;81.46;99797.31;5096084;28;20369;-66
2022/10/18 05:03:37;;;;;;;12.10;7.57;;;;;;;9.30;82.00;99784.38;5094664;28;20034;-65
2022/10/18 05:06:04;;;;;;;13.43;7.28;;;;;;;9.37;81.83;99792.06;5089415;28;20029;-65
2022/10/18 05:08:32;;;;;;;11.13;6.95;;;;;;;9.46;81.28;99789.34;5092872;28;20029;-65
2022/10/18 05:10:58;;;;;;;14.20;6.68;;;;;;;9.53;81.64;99782.34;5094480;28;20084;-65
2022/10/18 05:13:24;;;;;;;11.18;7.13;;;;;;;9.48;81.19;99782.44;5093812;28;20031;-64
2022/10/18 05:15:50;;;;;;;13.35;7.03;;;;;;;9.49;81.44;99790.16;5095936;28;20017;-66
2022/10/18 05:18:16;;;;;;;14.23;7.50;;;;;;;9.53;81.59;99790.09;5090531;28;20028;-66
2022/10/18 05:20:42;;;;;;;9.23;6.78;;;;;;;9.57;81.11;99781.44;5093402;28;20081;-66
2022/10/18 05:23:10;;;;;;;9.85;6.78;;;;;;;9.59;81.60;99795.16;5093229;28;20336;-65
2022/10/18 05:25:42;;;;;;;14.32;6.90;;;;;;;9.55;80.98;99794.38;5091773;28;20024;-66
2022/10/18 05:28:08;;;;;;;;;;;;;;;9.66;81.32;99800.25;5101329;28;20047;-66
2022/10/18 05:30:37;;;;;;;13.82;7.25;;;;;;;9.55;80.98;99785.75;5100633;28;19942;-67
2022/10/18 05:33:03;;;;;;;10.60;7.07;;;;;;;9.71;81.37;99800.16;5089516;28;20102;-66
2022/10/18 05:35:28;;;;;;;17.40;7.97;;;;;;;9.72;81.52;99801.00;5104552;28;20047;-67
2022/10/18 05:37:54;;;;;;;11.00;7.65;;;;;;;9.68;81.04;99803.66;5089414;28;20035;-67
2022/10/18 05:40:19;;;;;;;11.00;7.50;;;;;;;9.73;81.70;99800.13;5094771;28;20096;-67
2022/10/18 05:42:45;;;;;;;12.70;8.20;;;;;;;9.57;81.06;99794.34;5099323;28;20237;-67
2022/10/18 05:45:10;;;;;;;15.57;8.40;;;;;;;9.68;81.42;99801.06;5083716;28;20023;-66
2022/10/18 05:47:36;;;;;;;14.75;7.95;;;;;;;9.66;81.59;99807.13;5104260;28;20027;-66
2022/10/18 05:50:02;;;;;;;18.17;8.40;;;;;;;9.71;81.19;99801.91;5086995;28;20028;-66
2022/10/18 05:52:29;;;;;;;12.25;8.27;;;;;;;9.73;81.38;99806.16;5094876;28;20066;-66
2022/10/18 05:54:54;;;;;;;14.95;8.63;;;;;;;9.74;81.16;99807.88;5101739;28;20242;-65
2022/10/18 05:57:20;;;;;;;25.67;8.60;;;;;;;9.79;81.22;99805.19;5102287;28;20047;-66
2022/10/18 05:59:46;;;;;;;10.45;7.68;;;;;;;9.84;81.02;99796.47;5083545;28;20021;-66
2022/10/18 06:02:12;;;;;;;13.18;7.85;;;;;;;9.82;80.94;99795.66;5099915;28;20063;-66
2022/10/18 06:04:38;;;;;;;19.05;9.55;;;;;;;9.74;80.83;99797.53;5091381;28;20051;-66
2022/10/18 06:07:09;;;;;;;17.67;8.25;;;;;;;9.74;80.40;99796.69;5090022;28;20024;-65
2022/10/18 06:09:34;;;;;;;13.30;7.97;;;;;;;9.70;80.92;99780.34;5100143;28;20257;-66
2022/10/18 06:12:00;;;;;;;12.70;8.35;;;;;;;9.80;81.06;99781.88;5082313;28;20035;-67
2022/10/18 06:14:26;;;;;;;14.73;8.73;;;;;;;9.87;81.11;99772.31;5100967;28;20069;-66
2022/10/18 06:16:51;;;;;;;12.32;7.78;;;;;;;9.88;79.93;99761.09;5089370;28;20031;-65
2022/10/18 06:19:17;;;;;;;13.73;8.32;;;;;;;9.90;80.36;99759.31;5082601;28;20027;-66
2022/10/18 06:21:43;;;;;;;16.50;8.90;;;;;;;9.75;80.17;99744.06;5087406;28;20051;-66
2022/10/18 06:24:08;;;;;;;14.35;9.48;;;;;;;9.70;81.11;99738.97;5084693;28;20224;-66
2022/10/18 06:26:34;;;;;;;16.55;9.23;;;;;;;9.71;81.54;99740.69;5102677;28;20031;-66
2022/10/18 06:29:00;;;;;;;15.18;8.57;;;;;;;9.78;80.80;99742.28;5088082;28;20024;-66
2022/10/18 06:31:26;;;;;;;14.48;9.35;;;;;;;9.75;81.29;99732.00;5091759;28;20028;-65
2022/10/18 06:33:51;;;;;;;16.77;10.18;;;;;;;9.72;81.28;99718.25;5103071;28;20024;-67
2022/10/18 06:36:21;;;;;;;17.75;9.88;;;;;;;9.79;80.57;99714.69;5102358;28;20259;-66
2022/10/18 06:38:47;;;;;;;19.05;10.10;;;;;;;9.67;81.54;99692.47;5082894;28;20032;-65
2022/10/18 06:41:13;;;;;;;14.23;10.35;;;;;;;9.75;81.78;99695.78;5098085;28;20047;-66
2022/10/18 06:43:39;;;;;;;17.83;10.10;;;;;;;9.71;81.77;99688.97;5102835;28;20020;-66
2022/10/18 06:46:06;;;;;;;17.50;10.48;;;;;;;9.59;81.54;99658.13;5095658;28;20056;-66
2022/10/18 06:48:35;;;;;;;21.80;10.27;;;;;;;9.67;82.31;99666.63;5082733;28;20025;-67
2022/10/18 06:51:03;;;;;;;17.77;10.57;;;;;;;9.66;82.66;99654.56;5102608;28;21147;-67
2022/10/18 06:53:31;;;;;;;19.33;11.30;;;;;;;9.62;82.86;99633.09;5102803;28;20036;-66
2022/10/18 06:56:02;;;;;;;20.25;11.98;;;;;;;9.54;84.47;99623.78;5084288;28;20055;-66
2022/10/18 06:58:28;;;;;;;17.95;11.65;;;;;;;9.41;85.40;99598.13;5083985;28;20032;-66
2022/10/18 07:00:54;;;;;;;18.25;12.13;;;;;;;9.35;86.34;99603.44;5083095;28;20024;-67
2022/10/18 07:03:20;;;;;;;22.67;13.73;;;;;;;9.25;86.62;99609.63;5083250;28;20236;-66
2022/10/18 07:05:47;;;;;;;22.52;13.88;;;;;;;9.35;86.87;99618.94;5096769;28;20069;-67
2022/10/18 07:08:13;;;;;;;21.95;14.10;;;;;;;9.41;87.03;99607.63;5089612;28;20039;-66
2022/10/18 07:10:39;;;;;;;19.23;13.10;;;;;;;9.32;87.14;99573.31;5093904;28;20032;-67
2022/10/18 07:13:04;;;;;;;21.25;13.30;;;;;;;9.30;88.45;99579.38;5095713;28;20070;-67
2022/10/18 07:15:30;;;;;;;22.35;13.07;;;;;;;9.19;88.07;99571.81;5084658;28;20028;-66
2022/10/18 07:17:56;;;;;;;19.27;14.05;;;;;;;9.26;88.30;99569.97;5102586;28;20312;-67
2022/10/18 07:20:21;;;;;;;20.20;14.00;;;;;;;9.27;88.83;99545.84;5084923;28;20028;-67
2022/10/18 07:22:47;;;;;;;22.70;14.32;;;;;;;9.22;89.61;99545.06;5088028;28;20051;-67
2022/10/18 07:25:13;;;;;;;22.08;15.10;;;;;;;9.20;89.99;99536.53;5092583;28;20024;-67
2022/10/18 07:27:41;;;;;;;20.77;14.05;;;;;;;9.09;90.10;99514.31;5105793;28;20031;-66
2022/10/18 07:30:09;;;;;;;18.58;14.27;;;;;;;9.21;90.37;99517.56;5106807;28;20031;-66
2022/10/18 07:32:35;;;;;;;19.77;14.93;;;;;;;9.25;90.33;99514.00;5088782;28;20021;-66
2022/10/18 07:35:01;;;;;;;23.48;15.02;;;;;;;9.01;90.04;99500.69;5105267;28;20111;-67
2022/10/18 07:37:27;;;;;;;25.30;15.77;;;;;;;9.08;90.60;99504.84;5096899;28;20044;-67
2022/10/18 07:39:53;;;;;;;24.95;15.35;;;;;;;9.16;91.12;99499.53;5089859;28;20197;-66
2022/10/18 07:42:18;;;;;;;20.63;14.32;;;;;;;9.11;90.81;99457.47;5105760;28;20028;-66
2022/10/18 07:44:44;;;;;;;22.45;15.40;;;;;;;9.14;91.71;99439.31;5084679;28;20085;-68
2022/10/18 07:47:10;;;;;;;22.27;15.43;;;;;;;9.24;90.52;99422.72;5101560;28;20035;-68
2022/10/18 07:49:35;;;;;;;20.55;14.85;;;;;;;9.27;90.96;99414.06;5099173;28;20020;-67
2022/10/18 07:52:01;;;;;;;21.38;14.23;;;;;;;9.21;90.49;99401.28;5104959;28;20028;-67
2022/10/18 07:54:27;;;;;;;22.58;13.93;;;;;;;9.31;90.28;99397.63;5105015;28;20268;-68
2022/10/18 07:56:53;;;;;;;20.27;13.98;;;;;;;9.34;91.01;99376.88;5084744;28;20204;-67
2022/10/18 07:59:18;;;;;;;19.02;13.93;;;;;;;9.31;90.26;99367.47;5085409;28;20088;-66
2022/10/18 08:01:44;;;;;;;18.95;13.80;;;;;;;9.08;90.88;99354.19;5096611;28;20045;-67
2022/10/18 08:04:10;;;;;;;21.98;13.90;;;;;;;9.07;91.28;99340.41;5098797;28;20035;-67
2022/10/18 08:06:35;;;;;;;20.08;13.23;;;;;;;9.07;91.26;99340.41;5103361;28;20029;-67
2022/10/18 08:09:01;;;;;;;22.75;14.35;;;;;;;9.06;91.59;99336.13;5105807;28;20024;-67
2022/10/18 08:11:26;;;;;;;19.10;13.73;;;;;;;8.93;92.08;99316.59;5094215;28;20039;-66
2022/10/18 08:13:53;;;;;;;18.13;14.18;;;;;;;9.12;91.43;99310.16;5092572;28;20028;-67
2022/10/18 08:16:30;;;;;;;19.60;14.13;;;;;;;9.15;92.35;99298.94;5088420;28;20028;-67
2022/10/18 08:18:59;;;;;;;24.92;15.15;;;;;;;8.95;93.00;99301.91;5090937;28;20193;-68
2022/10/18 08:21:25;;;;;;;26.55;15.30;;;;;;;9.06;92.32;99284.44;5103304;28;20285;-68
2022/10/18 08:23:50;;;;;;;21.83;16.20;;;;;;;9.08;93.17;99274.13;5091408;28;20024;-67
2022/10/18 08:26:18;;;;;;;22.25;14.90;;;;;;;8.99;92.38;99228.66;5094851;28;20024;-68
2022/10/18 08:28:44;;;;;;;24.05;15.70;;;;;;;8.84;93.89;99201.44;5087912;28;20048;-68
2022/10/18 08:31:16;;;;;;;21.10;14.68;;;;;;;8.86;94.09;99188.50;5092114;28;20028;-67
2022/10/18 08:33:42;;;;;;;23.17;14.20;;;;;;;8.72;93.51;99157.81;5105460;28;20059;-67
2022/10/18 08:36:12;;;;;;;24.65;15.70;;;;;;;8.62;95.05;99126.19;5105124;28;20048;-67
2022/10/18 08:38:39;;;;;;;22.00;15.35;;;;;;;8.63;95.08;99126.16;5085835;28;20103;-67
2022/10/18 08:41:32;;;;;;;23.42;16.15;;;;;;;8.76;94.13;99118.97;5094791;28;20213;-66
2022/10/18 08:44:18;;;;;;;24.00;17.73;;;;;;;8.69;95.46;99103.69;5095971;28;20031;-67
2022/10/18 08:46:47;;;;;;;23.80;17.63;;;;;;;8.66;94.47;99090.84;5094264;28;20060;-67
2022/10/18 08:49:28;;;;;;;23.20;16.27;;;;;;;8.56;95.23;99065.25;5099593;28;20276;-67
2022/10/18 08:51:56;;;;;;;30.50;17.83;;;;;;;8.56;95.86;99046.34;5105373;28;20069;-67
2022/10/18 08:54:25;;;;;;;27.00;16.13;;;;;;;8.50;94.95;99000.06;5098482;28;20346;-65
2022/10/18 08:57:01;;;;;;;26.38;16.38;;;;;;;8.45;97.04;99003.59;5102588;28;20032;-67
2022/10/18 08:59:38;;;;;;;25.45;17.27;;;;;;;8.60;95.85;99010.09;5097616;28;20024;-67
2022/10/18 09:02:09;;;;;;;25.52;16.92;;;;;;;8.62;97.34;99007.47;5094430;28;20437;-68
2022/10/18 09:04:42;;;;;;;23.45;15.60;;;;;;;8.41;97.29;99027.72;5092683;28;20078;-67
2022/10/18 09:07:36;;;;;;;18.73;13.93;;;;;;;8.76;96.74;99074.25;5093593;28;20073;-67
2022/10/18 09:10:04;;;;;;;25.70;16.50;;;;;;;8.83;97.01;99065.47;5102322;28;20047;-67
2022/10/18 09:12:41;;;;;;;22.88;14.60;;;;;;;8.83;96.33;99067.22;5092860;28;20028;-66
2022/10/18 09:15:26;;;;;;;20.60;13.90;;;;;;;8.66;96.16;99050.41;5091457;28;20055;-66
2022/10/18 09:18:03;;;;;;;22.48;13.93;;;;;;;8.55;98.46;99042.06;5093144;28;20059;-67
2022/10/18 09:20:57;;;;;;;20.88;14.43;;;;;;;8.80;96.88;99058.66;5092810;28;20032;-66
2022/10/18 09:23:42;;;;;;;19.02;14.43;;;;;;;8.89;97.01;99061.91;5095120;28;20059;-67
2022/10/18 09:26:18;;;;;;;18.50;14.02;;;;;;;9.01;96.51;99042.66;5094278;28;20020;-70
2022/10/18 09:28:44;;;;;;;17.92;12.77;;;;;;;9.06;96.18;99040.81;5095496;28;20023;-67
2022/10/18 09:31:41;;;;;;;21.13;14.38;;;;;;;9.07;95.70;99021.84;5100460;28;20023;-67
2022/10/18 09:34:29;;;;;;;22.42;15.65;;;;;;;9.07;95.89;99004.63;5103800;28;20109;-67
2022/10/18 09:36:55;;;;;;;17.23;12.95;;;;;;;9.07;96.00;99007.19;5094712;28;20048;-67
2022/10/18 09:39:29;;;;;;;16.27;12.70;;;;;;;9.13;96.44;98986.34;5095218;28;20040;-66
2022/10/18 09:42:07;;;;;;;18.45;12.60;;;;;;;9.31;96.21;99002.28;5084087;28;20032;-66
2022/10/18 09:44:38;;;;;;;14.18;11.05;;;;;;;9.27;95.06;98990.31;5099894;28;20047;-67
2022/10/18 09:47:11;;;;;;;14.27;11.43;;;;;;;9.34;95.46;99004.75;5088145;28;20180;-66
2022/10/18 09:49:43;;;;;;;16.05;11.05;;;;;;;9.27;95.34;98974.81;5083961;28;20055;-67
2022/10/18 09:52:26;;;;;;;12.68;10.43;;;;;;;9.38;95.78;98979.66;5089911;28;20030;-66
2022/10/18 09:54:57;;;;;;;15.85;11.65;;;;;;;9.31;95.50;98951.44;5100549;28;20370;-66
2022/10/18 09:57:38;;;;;;;15.73;11.30;;;;;;;9.01;96.51;98937.63;5083796;28;20276;-65
2022/10/18 10:00:12;;;;;;;14.60;11.27;;;;;;;9.33;96.49;98959.13;5083712;28;20206;-66
2022/10/18 10:02:38;;;;;;;14.57;11.88;;;;;;;9.27;96.33;98948.97;5102153;28;20039;-66
2022/10/18 10:05:08;;;;;;;15.27;12.13;;;;;;;9.26;96.86;98942.13;5098042;28;20028;-65
2022/10/18 10:07:41;;;;;;;17.48;12.27;;;;;;;9.28;97.23;98942.94;5094586;28;20024;-65
2022/10/18 10:10:23;;;;;;;14.40;11.65;;;;;;;9.31;96.68;98917.00;5082326;28;20028;-65
2022/10/18 10:13:01;;;;;;;15.85;11.93;;;;;;;9.25;96.59;98907.69;5093818;28;20040;-65
2022/10/18 10:15:28;;;;;;;11.40;10.18;;;;;;;9.40;96.58;98924.47;5103859;28;20032;-65
2022/10/18 10:18:00;;;;;;;16.52;11.70;;;;;;;9.34;96.29;98916.91;5092938;28;20032;-65
2022/10/18 10:20:43;;;;;;;12.05;10.63;;;;;;;9.33;96.86;98891.94;5092686;28;20032;-66
2022/10/18 10:23:20;;;;;;;17.67;13.07;;;;;;;9.43;97.04;98882.19;5093010;28;20040;-64
2022/10/18 10:25:56;;;;;;;14.93;11.65;;;;;;;9.46;97.40;98887.25;5091375;28;20036;-65
2022/10/18 10:28:32;;;;;;;12.07;10.77;;;;;;;9.41;96.95;98869.31;5088343;28;20042;-65
2022/10/18 10:31:18;;;;;;;18.45;13.90;;;;;;;9.59;97.18;98880.00;5087125;28;20035;-65
2022/10/18 10:33:46;;;;;;;14.15;12.70;;;;;;;9.57;97.18;98872.28;5097507;28;20036;-66
2022/10/18 10:36:19;;;;;;;13.48;11.10;;;;;;;9.64;96.57;98870.38;5083192;28;20043;-66
2022/10/18 10:38:44;;;;;;;12.45;10.23;;;;;;;9.73;96.15;98874.41;5099629;28;20056;-66
2022/10/18 10:41:28;;;;;;;16.00;10.90;;;;;;;9.74;96.07;98866.59;5088899;28;20028;-66
2022/10/18 10:43:55;;;;;;;12.32;11.00;;;;;;;9.74;95.43;98860.59;5083028;28;20197;-66
2022/10/18 10:46:22;;;;;;;16.10;12.70;;;;;;;9.74;96.30;98864.00;5090222;28;20032;-66
2022/10/18 10:48:51;;;;;;;16.08;12.43;;;;;;;9.76;95.68;98831.22;5100750;28;20031;-66
2022/10/18 10:51:37;;;;;;;17.23;12.20;;;;;;;9.90;95.97;98846.25;5083252;28;20043;-66
2022/10/18 10:54:19;;;;;;;18.58;14.18;;;;;;;9.87;96.15;98853.28;5083141;28;20048;-65
2022/10/18 10:57:18;;;;;;;12.98;10.40;;;;;;;9.96;95.79;98842.63;5083094;28;20035;-65
2022/10/18 10:59:48;;;;;;;15.55;12.15;;;;;;;9.88;95.84;98816.19;5104077;28;20220;-66
2022/10/18 11:02:16;;;;;;;12.57;10.57;;;;;;;10.00;95.87;98837.31;5092856;28;20066;-66
2022/10/18 11:04:43;;;;;;;14.52;11.43;;;;;;;10.00;95.42;98823.53;5096892;28;20070;-67
2022/10/18 11:07:08;;;;;;;14.15;11.70;;;;;;;10.03;95.64;98826.00;5101969;28;20094;-67
2022/10/18 11:09:49;;;;;;;16.75;13.63;;;;;;;10.06;96.05;98814.72;5092147;28;20052;-67
2022/10/18 11:12:27;;;;;;;16.90;13.23;;;;;;;10.08;95.83;98808.59;5097696;28;20032;-66
2022/10/18 11:15:13;;;;;;;17.83;13.75;;;;;;;10.04;96.79;98781.13;5096179;28;20275;-66
2022/10/18 11:17:46;;;;;;;16.33;13.55;;;;;;;10.12;97.07;98801.59;5087819;28;20039;-67
2022/10/18 11:20:25;;;;;;;20.70;15.23;;;;;;;10.08;97.39;98795.66;5094915;28;20020;-65
2022/10/18 11:23:12;;;;;;;16.85;13.60;;;;;;;10.25;97.42;98808.03;5092932;28;20346;-66
2022/10/18 11:26:20;;;;;;;18.20;13.40;;;;;;;10.33;97.18;98797.41;5097867;28;20110;-66
2022/10/18 11:29:07;;;;;;;19.60;13.90;;;;;;;10.31;98.51;98800.03;5086741;28;20211;-66
2022/10/18 11:31:39;;;;;;;19.25;13.95;;;;;;;10.42;98.42;98806.63;5095235;28;20048;-67
2022/10/18 11:34:13;;;;;;;15.75;13.23;;;;;;;10.49;98.44;98813.28;5105766;28;20200;-67
2022/10/18 11:36:51;;;;;;;19.40;13.75;;;;;;;10.55;98.06;98802.72;5105574;28;20048;-67
2022/10/18 11:39:28;;;;;;;18.50;12.95;;;;;;;10.58;98.79;98794.00;5106513;28;20031;-66
2022/10/18 11:42:36;;;;;;;17.95;14.90;;;;;;;10.64;99.37;98796.34;5086907;28;20036;-67
2022/10/18 11:45:13;;;;;;;15.93;13.15;;;;;;;10.71;100.00;98790.06;5064562;28;20228;-66